createdAt,value
2018-07-20T00:02:22.443Z,100992.06
2018-07-20T00:05:28.102Z,100974.23
2018-07-20T00:08:35.986Z,100987.23
2018-07-20T00:11:39.804Z,100982.29
2018-07-20T00:14:45.970Z,100979.17
2018-07-20T00:17:52.346Z,100971.16
2018-07-20T00:20:58.957Z,100972.28
2018-07-20T00:24:04.629Z,100976.13
2018-07-20T00:27:09.042Z,100966.80
2018-07-20T00:30:13.734Z,100957.05
2018-07-20T00:33:17.275Z,100973.41
2018-07-20T00:36:21.011Z,100972.75
2018-07-20T00:39:24.644Z,100943.02
2018-07-20T00:42:28.291Z,100959.16
2018-07-20T00:45:31.961Z,100963.89
2018-07-20T00:48:35.586Z,100958.72
2018-07-20T00:51:39.165Z,100950.52
2018-07-20T00:54:42.740Z,100948.33
2018-07-20T00:57:46.308Z,100947.84
2018-07-20T01:00:50.628Z,100939.65
2018-07-20T01:03:54.498Z,100939.90
2018-07-20T01:06:59.029Z,100933.45
2018-07-20T01:10:02.605Z,100934.66
2018-07-20T01:13:06.209Z,100934.55
2018-07-20T01:16:09.842Z,100928.03
2018-07-20T01:19:13.349Z,100928.03
2018-07-20T01:22:16.921Z,100927.82
2018-07-20T01:25:20.451Z,100929.45
2018-07-20T01:28:24.130Z,100925.13
2018-07-20T01:31:27.660Z,100922.19
2018-07-20T01:34:32.433Z,100926.13
2018-07-20T01:37:37.190Z,100929.34
2018-07-20T01:40:42.883Z,100924.31
2018-07-20T01:43:46.716Z,100930.78
2018-07-20T01:46:51.936Z,100931.45
2018-07-20T01:49:56.692Z,100932.27
2018-07-20T01:53:02.045Z,100927.31
2018-07-20T01:56:05.920Z,100927.79
2018-07-20T01:59:09.628Z,100923.40
2018-07-20T02:02:14.176Z,100924.85
2018-07-20T02:05:18.265Z,100926.44
2018-07-20T02:08:22.805Z,100926.21
2018-07-20T02:11:26.500Z,100931.11
2018-07-20T02:14:30.209Z,100932.63
2018-07-20T02:17:34.836Z,100924.80
2018-07-20T02:20:38.644Z,100925.58
2018-07-20T02:23:44.308Z,100933.34
2018-07-20T02:26:49.402Z,100933.70
2018-07-20T02:29:52.990Z,100930.31
2018-07-20T02:32:56.637Z,100930.19
2018-07-20T02:36:01.059Z,100925.45
2018-07-20T02:39:07.149Z,100922.17
2018-07-20T02:42:13.828Z,100926.31
2018-07-20T02:45:18.115Z,100926.55
2018-07-20T02:48:21.925Z,100927.06
2018-07-20T02:51:25.634Z,100923.27
2018-07-20T02:54:29.368Z,100927.19
2018-07-20T02:57:33.064Z,100920.08
2018-07-20T03:00:36.828Z,100913.95
2018-07-20T03:03:40.358Z,100912.78
2018-07-20T03:06:49.983Z,100914.25
2018-07-20T03:09:53.731Z,100910.51
2018-07-20T03:12:57.848Z,100908.14
2018-07-20T03:16:01.437Z,100905.13
2018-07-20T03:20:17.031Z,100907.24
2018-07-20T03:23:22.760Z,100907.80
2018-07-20T03:26:26.538Z,100911.28
2018-07-20T03:29:31.023Z,100904.87
2018-07-20T03:32:35.373Z,100911.28
2018-07-20T03:35:38.917Z,100912.38
2018-07-20T03:38:43.212Z,100917.57
2018-07-20T03:41:46.765Z,100915.17
2018-07-20T03:44:52.149Z,100915.73
2018-07-20T03:47:56.333Z,100912.12
2018-07-20T03:51:01.643Z,100917.92
2018-07-20T03:54:05.301Z,100918.31
2018-07-20T03:57:08.880Z,100916.55
2018-07-20T04:00:12.455Z,100918.66
2018-07-20T04:03:16.187Z,100915.86
2018-07-20T04:06:19.785Z,100909.61
2018-07-20T04:09:24.222Z,100915.56
2018-07-20T04:12:29.573Z,100907.90
2018-07-20T04:15:35.289Z,100908.60
2018-07-20T04:18:40.493Z,100900.55
2018-07-20T04:21:44.920Z,100902.53
2018-07-20T04:24:48.494Z,100904.34
2018-07-20T04:27:53.797Z,100881.91
2018-07-20T04:30:58.262Z,100902.78
2018-07-20T04:34:03.750Z,100897.63
2018-07-20T04:37:16.010Z,100912.66
2018-07-20T04:40:21.293Z,100915.17
2018-07-20T04:43:51.737Z,100914.08
2018-07-20T04:47:00.209Z,100909.88
2018-07-20T04:50:07.346Z,100895.98
2018-07-20T04:53:13.255Z,100912.33
2018-07-20T04:56:23.557Z,100915.91
2018-07-20T04:59:31.288Z,100923.64
2018-07-20T05:02:36.600Z,100913.59
2018-07-20T05:05:41.161Z,100914.29
2018-07-20T05:08:44.685Z,100909.44
2018-07-20T05:11:48.290Z,100911.66
2018-07-20T05:14:51.869Z,100898.52
2018-07-20T05:17:55.368Z,100904.52
2018-07-20T05:20:58.924Z,100914.66
2018-07-20T05:24:03.370Z,100918.75
2018-07-20T05:27:06.951Z,100911.39
2018-07-20T05:30:11.168Z,100915.14
2018-07-20T05:33:14.778Z,100921.23
2018-07-20T05:36:18.355Z,100919.05
2018-07-20T05:39:22.647Z,100906.48
2018-07-20T05:42:26.249Z,100905.36
2018-07-20T05:45:30.753Z,100911.27
2018-07-20T05:48:36.413Z,100912.98
2018-07-20T05:51:40.916Z,100919.73
2018-07-20T05:54:44.590Z,100913.27
2018-07-20T05:57:50.066Z,100902.65
2018-07-20T06:00:54.785Z,100903.62
2018-07-20T06:03:58.295Z,100912.61
2018-07-20T06:07:01.828Z,100914.25
2018-07-20T06:10:06.044Z,100902.88
2018-07-20T06:13:10.567Z,100909.48
2018-07-20T06:16:14.142Z,100905.70
2018-07-20T06:19:17.780Z,100915.44
2018-07-20T06:22:21.391Z,100912.70
2018-07-20T06:25:25.924Z,100912.56
2018-07-20T06:28:30.065Z,100915.34
2018-07-20T06:31:33.583Z,100909.72
2018-07-20T06:34:37.149Z,100891.48
2018-07-20T06:37:40.636Z,100891.70
2018-07-20T06:40:44.302Z,100884.06
2018-07-20T06:43:47.860Z,100886.83
2018-07-20T06:46:53.129Z,100898.66
2018-07-20T06:49:56.920Z,100898.34
2018-07-20T06:53:01.118Z,100896.73
2018-07-20T06:56:04.677Z,100905.21
2018-07-20T06:59:08.430Z,100908.16
2018-07-20T07:02:12.039Z,100911.06
2018-07-20T07:05:16.503Z,100906.98
2018-07-20T07:08:20.040Z,100901.79
2018-07-20T07:11:23.621Z,100907.44
2018-07-20T07:14:28.356Z,100907.04
2018-07-20T07:17:33.481Z,100910.23
2018-07-20T07:20:38.117Z,100914.60
2018-07-20T07:23:41.751Z,100913.97
2018-07-20T07:26:45.465Z,100916.94
2018-07-20T07:29:52.987Z,100915.02
2018-07-20T07:32:56.544Z,100905.91
2018-07-20T07:36:00.805Z,100910.91
2018-07-20T07:39:07.458Z,100912.75
2018-07-20T07:42:12.265Z,100910.21
2018-07-20T07:45:16.683Z,100919.88
2018-07-20T07:48:20.383Z,100912.80
2018-07-20T07:51:23.977Z,100908.14
2018-07-20T07:54:27.992Z,100906.99
2018-07-20T07:57:31.709Z,100907.92
2018-07-20T08:00:38.008Z,100903.28
2018-07-20T08:03:41.879Z,100896.36
2018-07-20T08:06:45.481Z,100899.92
2018-07-20T08:09:50.490Z,100897.95
2018-07-20T08:12:55.101Z,100898.28
2018-07-20T08:15:59.299Z,100888.52
2018-07-20T08:19:03.852Z,100891.75
2018-07-20T08:22:07.303Z,100892.83
2018-07-20T08:25:12.114Z,100892.14
2018-07-20T08:28:16.375Z,100884.00
2018-07-20T08:31:19.993Z,100880.42
2018-07-20T08:34:24.583Z,100884.83
2018-07-20T08:37:29.573Z,100881.95
2018-07-20T08:40:33.389Z,100884.63
2018-07-20T08:43:36.964Z,100880.18
2018-07-20T08:46:42.059Z,100883.62
2018-07-20T08:49:48.023Z,100879.66
2018-07-20T08:52:51.628Z,100881.98
2018-07-20T08:55:56.836Z,100879.91
2018-07-20T08:59:02.209Z,100879.44
2018-07-20T09:02:10.156Z,100874.42
2018-07-20T09:05:17.862Z,100876.42
2018-07-20T09:08:24.709Z,100873.14
2018-07-20T09:11:28.313Z,100871.60
2018-07-20T09:14:34.525Z,100867.80
2018-07-20T09:17:38.181Z,100865.54
2018-07-20T09:20:42.276Z,100860.60
2018-07-20T09:23:47.163Z,100859.33
2018-07-20T09:26:52.070Z,100861.70
2018-07-20T09:29:57.468Z,100859.72
2018-07-20T09:33:01.858Z,100858.32
2018-07-20T09:36:06.502Z,100861.55
2018-07-20T09:39:11.298Z,100856.03
2018-07-20T09:42:16.074Z,100867.34
2018-07-20T09:45:20.151Z,100864.81
2018-07-20T09:48:25.729Z,100856.64
2018-07-20T09:51:31.052Z,100856.14
2018-07-20T09:54:39.425Z,100851.84
2018-07-20T09:57:43.390Z,100854.70
2018-07-20T10:00:50.568Z,100857.36
2018-07-20T10:03:59.583Z,100849.62
2018-07-20T10:07:03.505Z,100856.42
2018-07-20T10:10:07.712Z,100846.45
2018-07-20T10:13:11.229Z,100837.48
2018-07-20T10:16:17.626Z,100839.73
2018-07-20T10:19:22.056Z,100841.17
2018-07-20T10:22:25.833Z,100845.44
2018-07-20T10:25:29.970Z,100845.12
2018-07-20T10:28:34.695Z,100839.83
2018-07-20T10:31:38.304Z,100836.95
2018-07-20T10:34:45.692Z,100833.51
2018-07-20T10:37:49.747Z,100827.69
2018-07-20T10:40:53.660Z,100823.84
2018-07-20T10:44:02.534Z,100819.75
2018-07-20T10:47:07.507Z,100824.22
2018-07-20T10:50:11.167Z,100815.05
2018-07-20T10:53:14.752Z,100813.61
2018-07-20T10:56:20.081Z,100815.91
2018-07-20T10:59:23.703Z,100808.62
2018-07-20T11:02:27.224Z,100805.97
2018-07-20T11:05:31.073Z,100803.07
2018-07-20T11:08:35.337Z,100805.45
2018-07-20T11:11:38.969Z,100793.84
2018-07-20T11:14:42.544Z,100799.33
2018-07-20T11:17:47.407Z,100807.06
2018-07-20T11:20:51.805Z,100804.20
2018-07-20T11:23:57.149Z,100795.50
2018-07-20T11:27:02.083Z,100800.57
2018-07-20T11:30:06.137Z,100792.86
2018-07-20T11:33:09.806Z,100792.70
2018-07-20T11:36:13.481Z,100788.28
2018-07-20T11:39:17.914Z,100794.64
2018-07-20T11:42:22.034Z,100797.59
2018-07-20T11:45:25.832Z,100793.77
2018-07-20T11:48:30.679Z,100786.03
2018-07-20T11:51:34.271Z,100782.61
2018-07-20T11:54:37.941Z,100779.33
2018-07-20T11:57:41.551Z,100775.52
2018-07-20T12:00:45.088Z,100774.38
2018-07-20T12:03:48.773Z,100764.19
2018-07-20T12:06:53.624Z,100767.73
2018-07-20T12:09:57.197Z,100768.58
2018-07-20T12:13:02.869Z,100771.22
2018-07-20T12:16:06.544Z,100769.10
2018-07-20T12:19:10.043Z,100756.75
2018-07-20T12:22:14.649Z,100762.86
2018-07-20T12:25:19.269Z,100767.85
2018-07-20T12:28:24.675Z,100759.77
2018-07-20T12:31:31.105Z,100766.91
2018-07-20T12:34:36.238Z,100761.52
2018-07-20T12:37:40.447Z,100764.75
2018-07-20T12:40:44.055Z,100761.23
2018-07-20T12:43:47.933Z,100751.66
2018-07-20T12:46:51.610Z,100752.64
2018-07-20T12:49:56.806Z,100751.92
2018-07-20T12:53:00.354Z,100746.50
2018-07-20T12:56:05.773Z,100743.52
2018-07-20T12:59:09.438Z,100743.02
2018-07-20T13:02:13.178Z,100742.06
2018-07-20T13:05:18.880Z,100739.03
2018-07-20T13:08:24.322Z,100746.13
2018-07-20T13:11:28.852Z,100742.59
2018-07-20T13:14:34.092Z,100727.99
2018-07-20T13:17:37.850Z,100737.37
2018-07-20T13:20:42.067Z,100729.54
2018-07-20T13:23:46.589Z,100725.77
2018-07-20T13:26:50.410Z,100721.91
2018-07-20T13:29:55.179Z,100713.83
2018-07-20T13:33:01.043Z,100720.08
2018-07-20T13:36:05.828Z,100726.23
2018-07-20T13:39:10.637Z,100723.09
2018-07-20T13:42:14.188Z,100710.94
2018-07-20T13:45:18.260Z,100720.48
2018-07-20T13:48:22.090Z,100720.80
2018-07-20T13:51:26.969Z,100714.36
2018-07-20T13:54:31.463Z,100707.66
2018-07-20T13:57:35.209Z,100702.84
2018-07-20T14:00:39.680Z,100695.94
2018-07-20T14:03:43.357Z,100689.41
2018-07-20T14:06:51.865Z,100681.95
2018-07-20T14:09:56.582Z,100679.09
2018-07-20T14:13:00.673Z,100685.27
2018-07-20T14:16:04.327Z,100673.07
2018-07-20T14:19:08.239Z,100674.75
2018-07-20T14:22:12.053Z,100672.25
2018-07-20T14:25:19.877Z,100665.88
2018-07-20T14:28:26.663Z,100663.79
2018-07-20T14:31:39.227Z,100663.69
2018-07-20T14:34:44.641Z,100658.75
2018-07-20T14:37:50.682Z,100656.14
2018-07-20T14:40:55.625Z,100643.37
2018-07-20T14:44:00.371Z,100648.33
2018-07-20T14:47:04.544Z,100646.03
2018-07-20T14:50:09.065Z,100647.72
2018-07-20T14:53:16.192Z,100639.65
2018-07-20T14:56:21.805Z,100638.64
2018-07-20T14:59:28.338Z,100640.50
2018-07-20T15:02:32.211Z,100631.91
2018-07-20T15:05:37.460Z,100634.84
2018-07-20T15:08:42.568Z,100627.58
2018-07-20T15:11:47.638Z,100624.08
2018-07-20T15:14:53.529Z,100635.69
2018-07-20T15:17:58.232Z,100631.16
2018-07-20T15:21:02.725Z,100631.89
2018-07-20T15:24:06.396Z,100623.05
2018-07-20T15:27:12.292Z,100629.47
2018-07-20T15:30:16.017Z,100632.20
2018-07-20T15:33:24.410Z,100624.63
2018-07-20T15:36:28.113Z,100623.55
2018-07-20T15:39:31.778Z,100617.45
2018-07-20T15:42:36.587Z,100610.47
2018-07-20T15:45:51.769Z,100608.16
2018-07-20T15:48:44.992Z,100610.59
2018-07-20T15:53:35.717Z,100606.94
2018-07-20T15:54:55.122Z,100606.81
2018-07-20T15:57:59.341Z,100602.11
2018-07-20T16:01:03.989Z,100604.11
2018-07-20T16:04:07.783Z,100604.48
2018-07-20T16:07:11.451Z,100596.11
2018-07-20T16:10:16.550Z,100592.16
2018-07-20T16:13:20.320Z,100588.53
2018-07-20T16:16:24.519Z,100593.80
2018-07-20T16:19:28.460Z,100598.48
2018-07-20T16:22:35.268Z,100594.15
2018-07-20T16:25:41.138Z,100588.88
2018-07-20T16:28:52.023Z,100584.16
2018-07-20T16:31:56.043Z,100584.69
2018-07-20T16:34:59.685Z,100581.88
2018-07-20T16:38:03.963Z,100584.62
2018-07-20T16:41:14.201Z,100583.78
2018-07-20T16:44:17.770Z,100590.50
2018-07-20T16:47:22.243Z,100581.19
2018-07-20T16:50:25.904Z,100580.59
2018-07-20T16:53:30.644Z,100577.31
2018-07-20T16:56:40.953Z,100579.27
2018-07-20T16:59:45.344Z,100574.93
2018-07-20T17:02:50.155Z,100579.01
2018-07-20T17:05:54.084Z,100576.25
2018-07-20T17:12:15.786Z,100582.55
2018-07-20T17:15:23.424Z,100585.67
2018-07-20T17:18:27.822Z,100587.47
2018-07-20T17:21:40.865Z,100585.75
2018-07-20T17:27:54.115Z,100585.78
2018-07-20T17:31:22.365Z,100591.01
2018-07-20T17:37:39.341Z,100593.09
2018-07-20T17:40:43.728Z,100600.59
2018-07-20T17:43:52.302Z,100596.37
2018-07-20T17:47:00.190Z,100599.80
2018-07-20T17:50:06.332Z,100588.18
2018-07-20T17:53:10.514Z,100587.00
2018-07-20T17:56:14.546Z,100583.63
2018-07-20T17:59:18.933Z,100589.98
2018-07-20T18:02:24.331Z,100592.00
2018-07-20T18:05:27.874Z,100594.80
2018-07-20T18:08:38.184Z,100595.45
2018-07-20T18:11:41.918Z,100589.14
2018-07-20T18:14:45.544Z,100598.96
2018-07-20T18:17:53.467Z,100595.11
2018-07-20T18:20:57.120Z,100590.22
2018-07-20T18:24:01.424Z,100592.94
2018-07-20T18:27:06.054Z,100590.13
2018-07-20T18:30:10.021Z,100586.78
2018-07-20T18:33:14.910Z,100585.87
2018-07-20T18:36:18.433Z,100588.83
2018-07-20T18:39:22.940Z,100595.60
2018-07-20T18:42:26.537Z,100590.73
2018-07-20T18:45:31.952Z,100591.00
2018-07-20T18:48:35.748Z,100591.58
2018-07-20T18:51:41.466Z,100589.45
2018-07-20T18:54:45.354Z,100597.53
2018-07-20T18:57:50.083Z,100592.09
2018-07-20T19:00:53.761Z,100590.98
2018-07-20T19:03:57.416Z,100596.11
2018-07-20T19:07:01.585Z,100598.41
2018-07-20T19:10:08.117Z,100596.10
2018-07-20T19:13:12.690Z,100600.04
2018-07-20T19:16:18.271Z,100604.72
2018-07-20T19:19:23.626Z,100605.75
2018-07-20T19:22:27.685Z,100603.27
2018-07-20T19:25:33.445Z,100601.61
2018-07-20T19:28:41.462Z,100606.95
2018-07-20T19:31:46.058Z,100608.85
2018-07-20T19:34:50.713Z,100616.34
2018-07-20T19:37:55.995Z,100617.48
2018-07-20T19:40:59.660Z,100624.59
2018-07-20T19:44:04.543Z,100623.97
2018-07-20T19:47:09.777Z,100629.72
2018-07-20T19:50:14.030Z,100627.10
2018-07-20T19:53:17.897Z,100630.38
2018-07-20T19:56:27.493Z,100629.59
2018-07-20T19:59:36.938Z,100640.17
2018-07-20T20:02:40.643Z,100633.73
2018-07-20T20:05:45.011Z,100633.22
2018-07-20T20:08:49.538Z,100640.94
2018-07-20T20:11:54.253Z,100639.95
2018-07-20T20:14:58.779Z,100646.91
2018-07-20T20:18:02.716Z,100644.33
2018-07-20T20:21:06.698Z,100647.20
2018-07-20T20:24:10.306Z,100649.75
2018-07-20T20:27:15.468Z,100647.03
2018-07-20T20:30:19.200Z,100648.73
2018-07-20T20:33:22.941Z,100655.81
2018-07-20T20:36:26.666Z,100666.09
2018-07-20T20:39:33.283Z,100660.31
2018-07-20T20:42:37.456Z,100667.10
2018-07-20T20:45:42.845Z,100663.73
2018-07-20T20:48:46.951Z,100662.28
2018-07-20T20:51:50.784Z,100655.62
2018-07-20T20:54:55.175Z,100661.31
2018-07-20T20:57:59.583Z,100656.12
2018-07-20T21:01:03.644Z,100659.45
2018-07-20T21:04:07.851Z,100652.25
2018-07-20T21:07:12.774Z,100659.83
2018-07-20T21:10:16.479Z,100659.70
2018-07-20T21:13:20.314Z,100664.41
2018-07-20T21:16:26.664Z,100665.22
2018-07-20T21:19:30.494Z,100657.18
2018-07-20T21:22:37.936Z,100662.20
2018-07-20T21:25:44.959Z,100662.14
2018-07-20T21:28:48.867Z,100661.77
2018-07-20T21:31:53.590Z,100663.31
2018-07-20T21:34:57.309Z,100662.55
2018-07-20T21:38:03.659Z,100664.33
2018-07-20T21:41:09.351Z,100667.83
2018-07-20T21:44:13.360Z,100666.03
2018-07-20T21:47:17.543Z,100660.66
2018-07-20T21:50:21.247Z,100663.44
2018-07-20T21:53:28.974Z,100660.47
2018-07-20T21:56:32.659Z,100668.44
2018-07-20T21:59:36.496Z,100663.89
2018-07-20T22:02:41.929Z,100668.77
2018-07-20T22:05:52.384Z,100666.36
2018-07-20T22:08:56.028Z,100661.92
2018-07-20T22:12:00.867Z,100669.25
2018-07-20T22:15:05.551Z,100672.11
2018-07-20T22:18:13.820Z,100674.52
2018-07-20T22:21:17.808Z,100667.55
2018-07-20T22:24:22.177Z,100666.88
2018-07-20T22:27:26.558Z,100668.89
2018-07-20T22:30:30.230Z,100668.56
2018-07-20T22:33:34.254Z,100667.58
2018-07-20T22:36:39.489Z,100671.70
2018-07-20T22:39:49.657Z,100667.07
2018-07-20T22:42:55.255Z,100661.59
2018-07-20T22:45:59.040Z,100666.92
2018-07-20T22:49:02.892Z,100667.27
2018-07-20T22:52:09.501Z,100665.23
2018-07-20T22:55:15.109Z,100669.30
2018-07-20T22:58:19.388Z,100669.88
2018-07-20T23:01:28.492Z,100664.10
2018-07-20T23:04:33.434Z,100653.91
2018-07-20T23:07:37.286Z,100647.25
2018-07-20T23:10:42.935Z,100646.89
2018-07-20T23:13:46.500Z,100645.17
2018-07-20T23:17:00.712Z,100633.22
2018-07-20T23:20:04.328Z,100634.59
2018-07-20T23:23:07.861Z,100621.44
2018-07-20T23:26:13.412Z,100625.63
2018-07-20T23:29:17.985Z,100632.61
2018-07-20T23:32:21.541Z,100624.20
2018-07-20T23:35:25.975Z,100629.63
2018-07-20T23:38:29.632Z,100633.19
2018-07-20T23:41:34.106Z,100636.64
2018-07-20T23:44:37.614Z,100635.83
2018-07-20T23:47:41.087Z,100638.91
2018-07-20T23:50:45.430Z,100624.27
2018-07-20T23:53:55.901Z,100649.04
2018-07-20T23:59:15.667Z,100636.78
